Sumatra, Florida
Current Conditions -  °F | °C
As of 7:34 AM on Monday 24 Nov 2014 (Local Time) from KAAF Reporting Station
Haze Haze  
Wind Chill: 72°   Ceiling: 300
Heat Index: 72°   Visibility: 1.2mi
Dew Point: 69°   Wind: 9mph
Humidity: 91%   Direction: 200°SSW
Pressure: 29.85"   Gusts: NA
Location:  30.02°N, 84.98°W
Report Text: KAAF 241234Z AUTO 20008KT 1 1/4SM BR OVC003 22/21 A2985 RMK AO2 T02220206 TSNO
Loading
Personal Weather Stations






























Interactive Weather Map New forecast layout! Learn more

10-Day Weather Forecast

Advertisements
Track Severe Weather on mobile